createdAt,value
2018-06-13T00:01:43.538Z,87.60
2018-06-13T00:04:12.143Z,87.71
2018-06-13T00:06:40.807Z,87.30
2018-06-13T00:09:09.768Z,87.80
2018-06-13T00:11:38.282Z,88.00
2018-06-13T00:14:06.805Z,88.12
2018-06-13T00:16:35.333Z,88.11
2018-06-13T00:19:03.853Z,88.45
2018-06-13T00:21:32.508Z,88.04
2018-06-13T00:24:01.017Z,87.30
2018-06-13T00:26:29.568Z,87.24
2018-06-13T00:28:58.221Z,88.09
2018-06-13T00:31:26.779Z,88.35
2018-06-13T00:33:55.357Z,87.58
2018-06-13T00:36:23.881Z,87.32
2018-06-13T00:38:52.420Z,86.54
2018-06-13T00:41:20.956Z,86.77
2018-06-13T00:43:49.573Z,86.69
2018-06-13T00:46:18.109Z,87.13
2018-06-13T00:48:46.705Z,87.01
2018-06-13T00:51:15.376Z,86.54
2018-06-13T00:53:44.015Z,86.12
2018-06-13T00:56:23.794Z,86.52
2018-06-13T00:58:52.314Z,86.50
2018-06-13T01:01:20.918Z,85.62
2018-06-13T01:03:49.457Z,86.23
2018-06-13T01:06:18.038Z,86.08
2018-06-13T01:08:46.612Z,86.63
2018-06-13T01:11:15.182Z,86.89
2018-06-13T01:13:43.747Z,86.35
2018-06-13T01:16:12.268Z,86.92
2018-06-13T01:18:42.241Z,86.54
2018-06-13T01:21:10.794Z,86.98
2018-06-13T01:23:39.944Z,86.77
2018-06-13T01:26:08.633Z,87.28
2018-06-13T01:28:37.281Z,86.96
2018-06-13T01:31:06.117Z,85.14
2018-06-13T01:33:35.006Z,83.59
2018-06-13T01:36:03.669Z,84.03
2018-06-13T01:38:32.725Z,83.63
2018-06-13T01:41:01.278Z,84.77
2018-06-13T01:43:30.584Z,85.13
2018-06-13T01:45:59.220Z,84.64
2018-06-13T01:48:27.881Z,85.09
2018-06-13T01:50:58.852Z,85.40
2018-06-13T01:53:30.098Z,84.81
2018-06-13T01:56:00.050Z,84.41
2018-06-13T01:58:29.126Z,84.51
2018-06-13T02:00:57.922Z,84.65
2018-06-13T02:03:27.361Z,84.13
2018-06-13T02:05:56.292Z,84.17
2018-06-13T02:08:25.278Z,84.04
2018-06-13T02:10:54.758Z,84.67
2018-06-13T02:13:23.503Z,84.41
2018-06-13T02:15:52.770Z,84.13
2018-06-13T02:18:21.549Z,83.92
2018-06-13T02:20:50.324Z,84.09
2018-06-13T02:23:19.661Z,83.17
2018-06-13T02:25:48.420Z,83.80
2018-06-13T02:28:17.216Z,84.06
2018-06-13T02:30:46.156Z,85.05
2018-06-13T02:33:14.992Z,85.09
2018-06-13T02:35:43.697Z,85.06
2018-06-13T02:38:12.710Z,84.56
2018-06-13T02:40:41.601Z,84.14
2018-06-13T02:43:10.974Z,84.09
2018-06-13T02:45:39.637Z,83.83
2018-06-13T02:48:08.394Z,83.86
2018-06-13T02:50:37.061Z,84.23
2018-06-13T02:53:06.657Z,84.28
2018-06-13T02:55:35.825Z,84.58
2018-06-13T02:58:04.464Z,83.50
2018-06-13T03:00:33.322Z,84.03
2018-06-13T03:03:02.049Z,84.50
2018-06-13T03:05:33.016Z,83.72
2018-06-13T03:08:01.779Z,84.14
2018-06-13T03:10:30.745Z,85.08
2018-06-13T03:12:59.782Z,83.71
2018-06-13T03:15:28.736Z,84.37
2018-06-13T03:17:57.423Z,83.86
2018-06-13T03:20:26.505Z,85.41
2018-06-13T03:22:55.308Z,83.67
2018-06-13T03:25:24.656Z,84.54
2018-06-13T03:27:53.709Z,85.22
2018-06-13T03:30:23.522Z,84.36
2018-06-13T03:32:52.354Z,82.98
2018-06-13T03:35:21.151Z,83.96
2018-06-13T03:37:49.855Z,83.34
2018-06-13T03:40:18.542Z,82.33
2018-06-13T03:42:47.196Z,81.38
2018-06-13T03:45:16.129Z,81.14
2018-06-13T03:47:45.176Z,81.62
2018-06-13T03:50:13.838Z,81.88
2018-06-13T03:52:43.648Z,81.04
2018-06-13T03:55:12.312Z,81.30
2018-06-13T03:57:42.677Z,80.56
2018-06-13T04:00:12.157Z,81.67
2018-06-13T04:02:40.809Z,81.93
2018-06-13T04:05:09.587Z,81.40
2018-06-13T04:07:38.364Z,83.39
2018-06-13T04:10:07.061Z,80.30
2018-06-13T04:12:35.766Z,80.88
2018-06-13T04:15:04.819Z,82.09
2018-06-13T04:17:33.431Z,82.78
2018-06-13T04:20:01.989Z,83.09
2018-06-13T04:22:30.860Z,82.20
2018-06-13T04:24:59.480Z,82.69
2018-06-13T04:27:28.209Z,82.92
2018-06-13T04:29:57.015Z,82.85
2018-06-13T04:32:25.742Z,82.44
2018-06-13T04:34:54.380Z,83.22
2018-06-13T04:37:23.075Z,82.31
2018-06-13T04:39:51.721Z,82.39
2018-06-13T04:42:20.471Z,83.14
2018-06-13T04:44:50.116Z,83.15
2018-06-13T04:47:19.060Z,81.33
2018-06-13T04:49:47.760Z,83.18
2018-06-13T04:52:16.369Z,82.63
2018-06-13T04:54:45.209Z,81.85
2018-06-13T04:57:14.155Z,82.53
2018-06-13T04:59:42.900Z,81.57
2018-06-13T05:02:11.561Z,82.02
2018-06-13T05:04:40.356Z,82.09
2018-06-13T05:07:09.364Z,81.12
2018-06-13T05:09:38.421Z,81.34
2018-06-13T05:12:07.113Z,82.24
2018-06-13T05:14:35.764Z,81.26
2018-06-13T05:17:04.593Z,82.33
2018-06-13T05:19:33.446Z,81.69
2018-06-13T05:22:02.457Z,80.91
2018-06-13T05:24:31.364Z,78.82
2018-06-13T05:27:00.088Z,81.61
2018-06-13T05:29:28.937Z,81.58
2018-06-13T05:31:57.860Z,81.61
2018-06-13T05:34:26.772Z,80.80
2018-06-13T05:36:56.458Z,81.04
2018-06-13T05:39:26.026Z,80.57
2018-06-13T05:41:54.916Z,79.24
2018-06-13T05:44:23.632Z,80.67
2018-06-13T05:46:52.305Z,79.27
2018-06-13T05:49:21.426Z,80.85
2018-06-13T05:51:49.966Z,80.84
2018-06-13T05:54:18.517Z,80.31
2018-06-13T05:56:47.259Z,77.40
2018-06-13T05:59:16.622Z,75.96
2018-06-13T06:01:45.730Z,76.78
2018-06-13T06:04:14.518Z,76.10
2018-06-13T06:06:44.440Z,76.18
2018-06-13T06:09:13.786Z,76.49
2018-06-13T06:11:43.287Z,76.79
2018-06-13T06:14:13.301Z,76.60
2018-06-13T06:16:42.354Z,76.85
2018-06-13T06:19:11.626Z,76.45
2018-06-13T06:21:40.750Z,77.24
2018-06-13T06:24:09.780Z,77.57
2018-06-13T06:26:38.673Z,78.04
2018-06-13T06:29:07.792Z,76.97
2018-06-13T06:31:37.364Z,77.64
2018-06-13T06:34:06.425Z,77.72
2018-06-13T06:36:35.314Z,77.95
2018-06-13T06:39:04.670Z,77.52
2018-06-13T06:41:33.621Z,78.30
2018-06-13T06:44:02.773Z,77.82
2018-06-13T06:46:32.082Z,78.84
2018-06-13T06:49:01.239Z,79.49
2018-06-13T06:51:31.105Z,78.65
2018-06-13T06:53:59.880Z,79.13
2018-06-13T06:56:28.934Z,78.97
2018-06-13T06:58:58.189Z,78.75
2018-06-13T07:01:27.242Z,78.79
2018-06-13T07:03:56.899Z,78.09
2018-06-13T07:06:25.934Z,77.72
2018-06-13T07:08:54.970Z,76.98
2018-06-13T07:11:23.963Z,77.87
2018-06-13T07:13:52.985Z,77.36
2018-06-13T07:16:22.273Z,77.62
2018-06-13T07:18:51.162Z,76.92
2018-06-13T07:21:20.394Z,76.52
2018-06-13T07:23:49.991Z,76.10
2018-06-13T07:26:18.905Z,76.06
2018-06-13T07:28:48.411Z,75.99
2018-06-13T07:31:17.888Z,76.75
2018-06-13T07:33:47.039Z,76.94
2018-06-13T07:36:15.953Z,77.23
2018-06-13T07:38:45.343Z,76.99
2018-06-13T07:41:14.520Z,76.02
2018-06-13T07:43:43.776Z,76.95
2018-06-13T07:46:12.748Z,76.19
2018-06-13T07:48:41.866Z,75.39
2018-06-13T07:51:10.565Z,74.97
2018-06-13T07:53:39.545Z,75.20
2018-06-13T07:56:14.793Z,74.66
2018-06-13T07:58:43.875Z,75.24
2018-06-13T08:01:12.657Z,74.56
2018-06-13T08:03:41.739Z,73.96
2018-06-13T08:06:11.063Z,73.06
2018-06-13T08:08:40.115Z,73.26
2018-06-13T08:11:09.471Z,72.60
2018-06-13T08:13:38.643Z,72.65
2018-06-13T08:16:07.809Z,70.07
2018-06-13T08:18:37.202Z,70.08
2018-06-13T08:21:06.622Z,69.62
2018-06-13T08:23:35.666Z,69.87
2018-06-13T08:26:04.840Z,70.06
2018-06-13T08:28:33.875Z,71.05
2018-06-13T08:31:03.023Z,69.90
2018-06-13T08:33:32.325Z,70.57
2018-06-13T08:36:01.456Z,69.87
2018-06-13T08:38:30.304Z,69.00
2018-06-13T08:40:59.317Z,69.89
2018-06-13T08:43:29.118Z,69.07
2018-06-13T08:45:58.344Z,68.85
2018-06-13T08:48:27.605Z,69.50
2018-06-13T08:50:56.510Z,69.17
2018-06-13T08:53:25.313Z,68.32
2018-06-13T08:55:54.236Z,69.44
2018-06-13T08:58:23.849Z,67.87
2018-06-13T09:00:52.946Z,68.08
2018-06-13T09:03:22.295Z,65.58
2018-06-13T09:05:51.104Z,64.55
2018-06-13T09:08:20.239Z,63.35
2018-06-13T09:10:49.449Z,62.99
2018-06-13T09:13:18.236Z,61.73
2018-06-13T09:15:47.560Z,62.08
2018-06-13T09:18:16.646Z,61.99
2018-06-13T09:20:46.007Z,64.22
2018-06-13T09:23:14.887Z,63.65
2018-06-13T09:25:44.257Z,62.90
2018-06-13T09:28:13.490Z,61.44
2018-06-13T09:30:42.531Z,60.65
2018-06-13T09:33:11.574Z,60.71
2018-06-13T09:35:40.756Z,61.39
2018-06-13T09:38:09.870Z,62.95
2018-06-13T09:40:39.595Z,61.74
2018-06-13T09:43:09.473Z,60.88
2018-06-13T09:45:38.023Z,58.70
2018-06-13T09:48:07.515Z,57.56
2018-06-13T09:50:36.704Z,57.58
2018-06-13T09:53:05.558Z,57.22
2018-06-13T09:55:34.417Z,57.01
2018-06-13T09:58:03.713Z,56.84
2018-06-13T10:00:37.913Z,57.81
2018-06-13T10:03:07.477Z,58.57
2018-06-13T10:05:36.314Z,60.98
2018-06-13T10:08:05.490Z,60.97
2018-06-13T10:10:34.481Z,60.34
2018-06-13T10:13:03.143Z,59.53
2018-06-13T10:15:32.589Z,59.57
2018-06-13T10:18:02.019Z,61.37
2018-06-13T10:20:30.618Z,62.18
2018-06-13T10:22:59.786Z,62.44
2018-06-13T10:25:29.412Z,62.51
2018-06-13T10:27:58.303Z,61.98
2018-06-13T10:30:27.197Z,60.27
2018-06-13T10:32:55.952Z,60.68
2018-06-13T10:35:25.203Z,60.16
2018-06-13T10:37:55.081Z,59.63
2018-06-13T10:40:23.875Z,59.17
2018-06-13T10:42:52.999Z,58.92
2018-06-13T10:45:21.674Z,59.24
2018-06-13T10:47:51.275Z,59.46
2018-06-13T10:50:19.841Z,59.32
2018-06-13T10:52:49.179Z,58.92
2018-06-13T10:55:18.329Z,58.79
2018-06-13T10:57:48.433Z,58.70
2018-06-13T11:00:17.448Z,59.60
2018-06-13T11:02:46.891Z,59.06
2018-06-13T11:05:16.111Z,58.00
2018-06-13T11:07:45.195Z,57.48
2018-06-13T11:10:13.734Z,56.92
2018-06-13T11:12:42.327Z,55.84
2018-06-13T11:15:11.301Z,56.59
2018-06-13T11:17:40.108Z,56.43
2018-06-13T11:20:09.082Z,55.04
2018-06-13T11:22:38.124Z,58.00
2018-06-13T11:25:07.343Z,55.51
2018-06-13T11:27:36.085Z,53.44
2018-06-13T11:30:05.305Z,52.38
2018-06-13T11:32:33.972Z,54.21
2018-06-13T11:35:06.934Z,53.56
2018-06-13T11:37:36.640Z,53.32
2018-06-13T11:40:05.386Z,53.22
2018-06-13T11:42:34.144Z,51.38
2018-06-13T11:45:02.840Z,52.50
2018-06-13T11:47:31.825Z,51.43
2018-06-13T11:50:00.962Z,51.48
2018-06-13T11:52:29.514Z,49.31
2018-06-13T11:54:58.402Z,47.09
2018-06-13T11:57:27.052Z,46.34
2018-06-13T11:59:56.737Z,45.14
2018-06-13T12:02:25.811Z,45.52
2018-06-13T12:04:55.577Z,45.92
2018-06-13T12:07:24.081Z,50.27
2018-06-13T12:09:53.103Z,52.66
2018-06-13T12:12:22.135Z,53.61
2018-06-13T12:14:51.131Z,54.87
2018-06-13T12:17:20.017Z,54.52
2018-06-13T12:19:49.760Z,56.26
2018-06-13T12:22:18.414Z,56.89
2018-06-13T12:24:47.787Z,57.74
2018-06-13T12:27:16.441Z,56.89
2018-06-13T12:29:45.321Z,57.79
2018-06-13T12:32:14.324Z,59.17
2018-06-13T12:34:43.346Z,58.82
2018-06-13T12:37:12.820Z,60.17
2018-06-13T12:39:41.614Z,59.60
2018-06-13T12:42:10.200Z,59.62
2018-06-13T12:44:38.976Z,59.35
2018-06-13T12:47:07.578Z,58.94
2018-06-13T12:49:36.482Z,59.45
2018-06-13T12:52:06.501Z,59.37
2018-06-13T12:54:35.363Z,57.94
2018-06-13T12:57:04.666Z,58.41
2018-06-13T12:59:33.521Z,57.16
2018-06-13T13:02:03.510Z,57.62
2018-06-13T13:04:32.768Z,56.52
2018-06-13T13:07:01.983Z,56.51
2018-06-13T13:09:30.705Z,56.69
2018-06-13T13:11:59.580Z,55.66
2018-06-13T13:14:28.650Z,55.60
2018-06-13T13:16:57.609Z,55.34
2018-06-13T13:19:26.487Z,53.76
2018-06-13T13:21:55.720Z,54.76
2018-06-13T13:24:25.140Z,55.17
2018-06-13T13:26:53.918Z,53.74
2018-06-13T13:29:23.278Z,55.04
2018-06-13T13:31:51.918Z,54.63
2018-06-13T13:34:20.970Z,55.18
2018-06-13T13:36:50.590Z,56.99
2018-06-13T13:39:23.489Z,56.91
2018-06-13T13:41:52.140Z,56.23
2018-06-13T13:44:21.038Z,56.46
2018-06-13T13:46:50.320Z,56.21
2018-06-13T13:49:19.581Z,56.56
2018-06-13T13:51:48.572Z,56.38
2018-06-13T13:54:17.486Z,56.09
2018-06-13T13:56:46.147Z,56.68
2018-06-13T13:59:16.243Z,55.65
2018-06-13T14:01:45.803Z,56.50
2018-06-13T14:04:14.677Z,56.47
2018-06-13T14:06:44.094Z,56.81
2018-06-13T14:09:14.491Z,56.36
2018-06-13T14:11:43.009Z,56.78
2018-06-13T14:14:11.691Z,56.73
2018-06-13T14:16:41.305Z,56.71
2018-06-13T14:19:10.438Z,56.36
2018-06-13T14:21:40.276Z,56.13
2018-06-13T14:24:08.810Z,57.32
2018-06-13T14:26:38.289Z,56.19
2018-06-13T14:29:07.164Z,56.24
2018-06-13T14:31:36.116Z,56.12
2018-06-13T14:34:05.436Z,55.04
2018-06-13T14:36:34.706Z,54.34
2018-06-13T14:39:04.489Z,54.03
2018-06-13T14:41:33.559Z,53.10
2018-06-13T14:44:02.363Z,53.85
2018-06-13T14:46:31.598Z,54.27
2018-06-13T14:49:00.908Z,53.72
2018-06-13T14:51:29.573Z,54.86
2018-06-13T14:53:59.848Z,53.59
2018-06-13T14:56:31.624Z,54.59
2018-06-13T14:59:01.560Z,56.16
2018-06-13T15:01:31.637Z,56.67
2018-06-13T15:04:00.324Z,56.59
2018-06-13T15:06:28.892Z,56.10
2018-06-13T15:08:58.305Z,56.14
2018-06-13T15:11:27.848Z,56.84
2018-06-13T15:13:56.939Z,57.49
2018-06-13T15:16:26.106Z,56.42
2018-06-13T15:18:56.074Z,56.77
2018-06-13T15:21:25.316Z,56.34
2018-06-13T15:23:53.829Z,56.40
2018-06-13T15:26:22.805Z,55.95
2018-06-13T15:28:52.536Z,56.11
2018-06-13T15:31:21.374Z,56.14
2018-06-13T15:33:51.102Z,56.06
2018-06-13T15:36:19.853Z,55.60
2018-06-13T15:38:49.608Z,56.13
2018-06-13T15:41:18.693Z,55.69
2018-06-13T15:43:47.705Z,56.40
2018-06-13T15:46:16.736Z,56.53
2018-06-13T15:48:45.413Z,56.14
2018-06-13T15:51:14.692Z,55.52
2018-06-13T15:53:43.216Z,56.54
2018-06-13T15:56:12.761Z,56.58
2018-06-13T15:58:41.507Z,56.74
2018-06-13T16:01:10.091Z,56.34
2018-06-13T16:03:38.744Z,56.82
2018-06-13T16:06:07.421Z,57.04
2018-06-13T16:08:37.762Z,56.71
2018-06-13T16:11:06.662Z,55.88
2018-06-13T16:13:42.984Z,56.63
2018-06-13T16:16:12.244Z,56.19
2018-06-13T16:18:41.915Z,56.32
2018-06-13T16:21:11.306Z,57.01
2018-06-13T16:23:40.635Z,58.23
2018-06-13T16:26:10.250Z,57.74
2018-06-13T16:28:39.192Z,58.17
2018-06-13T16:31:08.938Z,57.51
2018-06-13T16:33:37.940Z,58.25
2018-06-13T16:36:06.899Z,58.08
2018-06-13T16:38:37.045Z,58.60
2018-06-13T16:41:06.705Z,58.77
2018-06-13T16:43:35.864Z,59.19
2018-06-13T16:46:05.282Z,59.19
2018-06-13T16:48:35.215Z,59.38
2018-06-13T16:51:15.291Z,59.09
2018-06-13T16:54:04.553Z,59.39
2018-06-13T16:56:35.150Z,60.32
2018-06-13T16:59:04.142Z,60.36
2018-06-13T17:01:33.828Z,60.76
2018-06-13T17:04:03.992Z,59.92
2018-06-13T17:06:33.910Z,59.26
2018-06-13T17:09:03.413Z,59.74
2018-06-13T17:11:33.344Z,60.50
2018-06-13T17:14:03.191Z,60.48
2018-06-13T17:16:32.794Z,60.66
2018-06-13T17:19:02.571Z,61.23
2018-06-13T17:21:32.088Z,61.62
2018-06-13T17:24:02.378Z,61.88
2018-06-13T17:26:33.089Z,61.86
2018-06-13T17:29:02.507Z,61.12
2018-06-13T17:31:32.109Z,61.49
2018-06-13T17:34:01.648Z,62.62
2018-06-13T17:36:31.409Z,61.70
2018-06-13T17:39:01.453Z,60.97
2018-06-13T17:41:30.492Z,61.81
2018-06-13T17:43:59.477Z,62.09
2018-06-13T17:46:28.404Z,62.51
2018-06-13T17:48:58.801Z,62.43
2018-06-13T17:51:29.656Z,63.17
2018-06-13T17:53:59.686Z,63.46
2018-06-13T17:56:30.807Z,62.79
2018-06-13T17:59:01.023Z,63.42
2018-06-13T18:01:31.424Z,64.15
2018-06-13T18:04:01.847Z,64.45
2018-06-13T18:06:34.115Z,64.01
2018-06-13T18:09:04.407Z,64.72
2018-06-13T18:11:34.822Z,65.17
2018-06-13T18:14:04.847Z,65.63
2018-06-13T18:16:34.592Z,65.16
2018-06-13T18:19:04.494Z,64.95
2018-06-13T18:21:34.543Z,65.43
2018-06-13T18:24:04.808Z,64.91
2018-06-13T18:26:35.128Z,65.94
2018-06-13T18:29:06.688Z,66.11
2018-06-13T18:31:37.316Z,66.36
2018-06-13T18:34:06.836Z,66.99
2018-06-13T18:36:37.348Z,67.06
2018-06-13T18:39:11.284Z,65.14
2018-06-13T18:41:41.947Z,66.24
2018-06-13T18:44:12.671Z,66.62
2018-06-13T18:46:42.176Z,66.19
2018-06-13T18:49:11.948Z,65.78
2018-06-13T18:51:41.678Z,63.79
2018-06-13T18:54:11.309Z,63.50
2018-06-13T18:56:40.947Z,63.31
2018-06-13T18:59:11.573Z,65.01
2018-06-13T19:01:42.677Z,65.23
2018-06-13T19:04:12.671Z,65.23
2018-06-13T19:06:43.189Z,64.57
2018-06-13T19:09:13.073Z,64.73
2018-06-13T19:11:42.958Z,64.75
2018-06-13T19:14:12.472Z,65.01
2018-06-13T19:16:41.992Z,65.12
2018-06-13T19:19:11.808Z,64.88
2018-06-13T19:21:41.400Z,65.24
2018-06-13T19:24:11.123Z,65.32
2018-06-13T19:26:40.427Z,65.63
2018-06-13T19:29:10.283Z,65.60
2018-06-13T19:31:40.529Z,66.26
2018-06-13T19:34:10.374Z,66.06
2018-06-13T19:36:39.673Z,65.31
2018-06-13T19:39:10.437Z,65.05
2018-06-13T19:41:39.422Z,65.30
2018-06-13T19:44:08.441Z,64.78
2018-06-13T19:46:37.413Z,65.20
2018-06-13T19:49:06.445Z,64.91
2018-06-13T19:51:35.456Z,65.44
2018-06-13T19:54:09.808Z,65.32
2018-06-13T19:56:38.709Z,65.81
2018-06-13T19:59:08.349Z,65.45
2018-06-13T20:01:38.064Z,65.03
2018-06-13T20:04:11.983Z,65.02
2018-06-13T20:06:41.248Z,65.22
2018-06-13T20:09:12.454Z,65.56
2018-06-13T20:11:42.226Z,65.48
2018-06-13T20:14:16.345Z,65.80
2018-06-13T20:16:53.435Z,66.00
2018-06-13T20:19:27.352Z,65.81
2018-06-13T20:21:57.589Z,65.52
2018-06-13T20:24:29.823Z,65.01
2018-06-13T20:27:04.521Z,65.21
2018-06-13T20:29:39.643Z,65.00
2018-06-13T20:32:09.009Z,64.51
2018-06-13T20:34:38.756Z,64.64
2018-06-13T20:37:08.252Z,64.52
2018-06-13T20:39:37.737Z,65.22
2018-06-13T20:42:07.408Z,65.43
2018-06-13T20:44:37.030Z,64.81
2018-06-13T20:47:06.903Z,65.36
2018-06-13T20:49:36.235Z,65.67
2018-06-13T20:52:05.597Z,65.54
2018-06-13T20:54:35.228Z,66.00
2018-06-13T20:57:05.509Z,66.46
2018-06-13T20:59:34.894Z,65.74
2018-06-13T21:02:04.548Z,66.29
2018-06-13T21:04:33.484Z,66.50
2018-06-13T21:07:02.244Z,67.10
2018-06-13T21:09:32.510Z,66.38
2018-06-13T21:12:01.560Z,66.18
2018-06-13T21:14:30.986Z,65.69
2018-06-13T21:17:00.856Z,65.82
2018-06-13T21:19:30.605Z,65.85
2018-06-13T21:22:00.339Z,65.62
2018-06-13T21:24:29.820Z,65.73
2018-06-13T21:26:59.082Z,65.85
2018-06-13T21:29:28.047Z,65.91
2018-06-13T21:31:56.941Z,66.55
2018-06-13T21:34:25.865Z,65.51
2018-06-13T21:36:55.085Z,65.57
2018-06-13T21:39:24.320Z,65.20
2018-06-13T21:41:53.520Z,65.34
2018-06-13T21:44:26.787Z,64.52
2018-06-13T21:46:56.593Z,65.80
2018-06-13T21:49:26.063Z,65.81
2018-06-13T21:51:55.031Z,65.70
2018-06-13T21:54:29.037Z,66.07
2018-06-13T21:56:59.612Z,65.66
2018-06-13T21:59:32.786Z,66.31
2018-06-13T22:02:02.709Z,66.76
2018-06-13T22:04:33.377Z,65.75
2018-06-13T22:07:02.200Z,66.23
2018-06-13T22:09:32.336Z,65.73
2018-06-13T22:12:01.478Z,66.67
2018-06-13T22:14:30.793Z,65.78
2018-06-13T22:16:59.341Z,65.65
2018-06-13T22:19:28.882Z,66.34
2018-06-13T22:21:58.026Z,66.56
2018-06-13T22:24:27.347Z,66.39
2018-06-13T22:27:03.471Z,66.24
2018-06-13T22:29:32.828Z,65.95
2018-06-13T22:32:10.323Z,65.53
2018-06-13T22:34:42.379Z,65.52
2018-06-13T22:37:16.477Z,66.34
2018-06-13T22:39:47.701Z,66.89
2018-06-13T22:42:24.046Z,66.27
2018-06-13T22:44:53.652Z,65.14
2018-06-13T22:47:24.473Z,65.61
2018-06-13T22:49:58.201Z,65.80
2018-06-13T22:52:27.320Z,66.21
2018-06-13T22:54:57.187Z,65.92
2018-06-13T22:57:26.642Z,66.72
2018-06-13T22:59:55.494Z,66.78
2018-06-13T23:02:24.081Z,66.27
2018-06-13T23:04:53.569Z,65.46
2018-06-13T23:07:22.800Z,65.41
2018-06-13T23:09:51.819Z,66.50
2018-06-13T23:12:22.757Z,66.88
2018-06-13T23:14:51.270Z,66.41
2018-06-13T23:17:21.808Z,66.68
2018-06-13T23:19:51.137Z,65.70
2018-06-13T23:22:20.412Z,66.67
2018-06-13T23:24:50.957Z,65.97
2018-06-13T23:27:22.250Z,67.05
2018-06-13T23:29:50.992Z,66.78
2018-06-13T23:32:20.040Z,65.93
2018-06-13T23:34:49.292Z,68.79
2018-06-13T23:37:19.246Z,68.75
2018-06-13T23:39:51.559Z,68.52
2018-06-13T23:42:20.440Z,68.09
2018-06-13T23:44:50.099Z,68.04
2018-06-13T23:47:19.330Z,67.57
2018-06-13T23:49:48.824Z,67.72
2018-06-13T23:52:18.239Z,67.91
2018-06-13T23:54:47.221Z,68.03
2018-06-13T23:57:16.449Z,67.68
2018-06-13T23:59:45.933Z,66.35
